createdAt,value
2018-05-14T00:00:36.732Z,984.74
2018-05-14T00:01:36.724Z,984.76
2018-05-14T00:02:36.720Z,984.71
2018-05-14T00:03:36.718Z,984.77
2018-05-14T00:04:36.712Z,984.79
2018-05-14T00:05:36.706Z,984.79
2018-05-14T00:06:36.704Z,984.76
2018-05-14T00:07:36.698Z,984.82
2018-05-14T00:08:36.696Z,984.79
2018-05-14T00:09:36.692Z,984.78
2018-05-14T00:10:36.682Z,984.77
2018-05-14T00:11:36.680Z,984.72
2018-05-14T00:12:36.676Z,984.69
2018-05-14T00:13:36.672Z,984.70
2018-05-14T00:14:36.664Z,984.71
2018-05-14T00:15:36.657Z,984.73
2018-05-14T00:16:36.656Z,984.74
2018-05-14T00:17:36.650Z,984.78
2018-05-14T00:18:36.646Z,984.75
2018-05-14T00:19:36.641Z,984.84
2018-05-14T00:20:36.637Z,984.84
2018-05-14T00:21:36.632Z,984.80
2018-05-14T00:22:36.634Z,984.74
2018-05-14T00:23:36.627Z,984.65
2018-05-14T00:24:36.626Z,984.57
2018-05-14T00:25:36.614Z,984.53
2018-05-14T00:26:36.610Z,984.57
2018-05-14T00:27:36.605Z,984.56
2018-05-14T00:28:36.600Z,984.57
2018-05-14T00:29:36.597Z,984.62
2018-05-14T00:30:36.593Z,984.59
2018-05-14T00:31:36.602Z,984.56
2018-05-14T00:32:36.581Z,984.54
2018-05-14T00:33:36.577Z,984.50
2018-05-14T00:34:36.574Z,984.53
2018-05-14T00:35:36.571Z,984.64
2018-05-14T00:36:36.563Z,984.60
2018-05-14T00:37:36.561Z,984.60
2018-05-14T00:38:36.554Z,984.61
2018-05-14T00:39:36.548Z,984.64
2018-05-14T00:40:36.544Z,984.68
2018-05-14T00:41:36.539Z,984.73
2018-05-14T00:42:36.536Z,984.70
2018-05-14T00:43:36.532Z,984.69
2018-05-14T00:44:36.528Z,984.69
2018-05-14T00:45:36.522Z,984.62
2018-05-14T00:46:36.516Z,984.65
2018-05-14T00:47:36.512Z,984.70
2018-05-14T00:48:36.515Z,984.74
2018-05-14T00:49:36.501Z,984.73
2018-05-14T00:50:36.498Z,984.72
2018-05-14T00:51:36.497Z,984.72
2018-05-14T00:52:36.488Z,984.70
2018-05-14T00:53:36.484Z,984.71
2018-05-14T00:54:36.479Z,984.69
2018-05-14T00:55:36.475Z,984.74
2018-05-14T00:56:36.471Z,984.78
2018-05-14T00:57:36.467Z,984.75
2018-05-14T00:58:36.475Z,984.79
2018-05-14T00:59:36.460Z,984.75
2018-05-14T01:00:36.472Z,984.72
2018-05-14T01:01:36.445Z,984.68
2018-05-14T01:02:36.442Z,984.64
2018-05-14T01:03:36.439Z,984.64
2018-05-14T01:04:36.433Z,984.59
2018-05-14T01:05:36.427Z,984.52
2018-05-14T01:06:36.473Z,984.51
2018-05-14T01:07:36.423Z,984.46
2018-05-14T01:08:36.413Z,984.43
2018-05-14T01:09:36.409Z,984.40
2018-05-14T01:10:36.404Z,984.39
2018-05-14T01:11:36.400Z,984.42
2018-05-14T01:12:36.395Z,984.40
2018-05-14T01:13:36.389Z,984.42
2018-05-14T01:14:36.386Z,984.37
2018-05-14T01:15:36.386Z,984.34
2018-05-14T01:16:36.378Z,984.25
2018-05-14T01:17:36.372Z,984.25
2018-05-14T01:18:36.373Z,984.11
2018-05-14T01:19:36.364Z,984.06
2018-05-14T01:20:36.359Z,984.04
2018-05-14T01:21:36.355Z,984.04
2018-05-14T01:22:36.349Z,984.05
2018-05-14T01:23:36.342Z,984.07
2018-05-14T01:24:36.340Z,984.06
2018-05-14T01:25:36.331Z,984.00
2018-05-14T01:26:36.330Z,983.95
2018-05-14T01:27:36.327Z,983.92
2018-05-14T01:28:36.319Z,983.88
2018-05-14T01:29:36.319Z,983.84
2018-05-14T01:30:36.313Z,983.86
2018-05-14T01:31:36.307Z,983.96
2018-05-14T01:32:36.301Z,983.95
2018-05-14T01:33:36.296Z,983.95
2018-05-14T01:34:36.292Z,983.96
2018-05-14T01:35:36.297Z,983.97
2018-05-14T01:36:36.285Z,984.00
2018-05-14T01:37:36.277Z,984.01
2018-05-14T01:38:36.274Z,983.98
2018-05-14T01:39:36.269Z,983.99
2018-05-14T01:40:36.265Z,984.01
2018-05-14T01:41:36.259Z,984.03
2018-05-14T01:42:36.253Z,984.05
2018-05-14T01:43:36.251Z,984.02
2018-05-14T01:44:36.262Z,984.01
2018-05-14T01:45:36.241Z,984.03
2018-05-14T01:46:36.236Z,984.02
2018-05-14T01:47:36.232Z,984.00
2018-05-14T01:48:36.227Z,983.98
2018-05-14T01:49:36.224Z,983.90
2018-05-14T01:50:36.217Z,983.85
2018-05-14T01:51:36.213Z,983.85
2018-05-14T01:52:36.205Z,983.81
2018-05-14T01:53:36.206Z,983.80
2018-05-14T01:54:36.198Z,983.77
2018-05-14T01:55:36.200Z,983.75
2018-05-14T01:56:36.189Z,983.73
2018-05-14T01:57:36.188Z,983.74
2018-05-14T01:58:36.180Z,983.76
2018-05-14T01:59:36.178Z,983.79
2018-05-14T02:00:36.170Z,983.76
2018-05-14T02:01:36.165Z,983.77
2018-05-14T02:02:36.169Z,983.87
2018-05-14T02:03:36.165Z,983.79
2018-05-14T02:04:36.153Z,983.81
2018-05-14T02:05:36.147Z,983.88
2018-05-14T02:06:36.142Z,983.85
2018-05-14T02:07:36.138Z,983.84
2018-05-14T02:08:36.133Z,983.89
2018-05-14T02:09:36.128Z,983.87
2018-05-14T02:10:36.124Z,983.86
2018-05-14T02:11:36.125Z,983.82
2018-05-14T02:12:36.116Z,983.82
2018-05-14T02:13:36.109Z,983.84
2018-05-14T02:14:36.104Z,983.90
2018-05-14T02:15:36.099Z,983.90
2018-05-14T02:16:36.096Z,983.91
2018-05-14T02:17:36.090Z,983.85
2018-05-14T02:18:36.086Z,983.84
2018-05-14T02:19:36.082Z,983.85
2018-05-14T02:20:36.076Z,983.84
2018-05-14T02:21:36.069Z,983.92
2018-05-14T02:22:36.067Z,983.91
2018-05-14T02:23:36.063Z,983.92
2018-05-14T02:24:36.058Z,983.99
2018-05-14T02:25:36.058Z,983.96
2018-05-14T02:26:36.049Z,983.97
2018-05-14T02:27:36.044Z,983.94
2018-05-14T02:28:36.039Z,983.89
2018-05-14T02:29:36.034Z,983.84
2018-05-14T02:30:36.031Z,983.81
2018-05-14T02:31:36.025Z,983.84
2018-05-14T02:32:36.021Z,983.82
2018-05-14T02:33:36.012Z,983.84
2018-05-14T02:34:36.011Z,983.82
2018-05-14T02:35:36.006Z,983.84
2018-05-14T02:36:36.001Z,983.86
2018-05-14T02:37:35.996Z,983.90
2018-05-14T02:38:35.997Z,983.93
2018-05-14T02:39:35.989Z,983.95
2018-05-14T02:40:35.983Z,983.99
2018-05-14T02:41:35.976Z,984.04
2018-05-14T02:42:35.972Z,983.97
2018-05-14T02:43:35.969Z,983.99
2018-05-14T02:44:35.965Z,983.94
2018-05-14T02:45:35.958Z,983.91
2018-05-14T02:46:35.958Z,983.79
2018-05-14T02:47:35.951Z,983.81
2018-05-14T02:48:35.949Z,983.81
2018-05-14T02:49:35.941Z,983.78
2018-05-14T02:50:35.933Z,983.77
2018-05-14T02:51:35.930Z,983.73
2018-05-14T02:52:35.927Z,983.68
2018-05-14T02:53:35.921Z,983.65
2018-05-14T02:54:35.920Z,983.58
2018-05-14T02:55:35.912Z,983.56
2018-05-14T02:56:35.908Z,983.57
2018-05-14T02:57:35.978Z,983.55
2018-05-14T02:58:35.898Z,983.55
2018-05-14T02:59:35.911Z,983.55
2018-05-14T03:00:35.892Z,983.58
2018-05-14T03:01:35.883Z,983.59
2018-05-14T03:02:35.880Z,983.61
2018-05-14T03:03:35.874Z,983.60
2018-05-14T03:04:35.891Z,983.60
2018-05-14T03:05:35.863Z,983.58
2018-05-14T03:06:35.856Z,983.57
2018-05-14T03:07:35.854Z,983.55
2018-05-14T03:08:35.853Z,983.48
2018-05-14T03:09:35.846Z,983.47
2018-05-14T03:10:35.841Z,983.45
2018-05-14T03:11:35.837Z,983.44
2018-05-14T03:12:35.832Z,983.49
2018-05-14T03:13:35.827Z,983.47
2018-05-14T03:14:35.828Z,983.54
2018-05-14T03:15:35.818Z,983.58
2018-05-14T03:16:35.812Z,983.59
2018-05-14T03:17:35.806Z,983.65
2018-05-14T03:18:35.803Z,983.71
2018-05-14T03:19:35.796Z,983.79
2018-05-14T03:20:35.795Z,983.88
2018-05-14T03:21:35.788Z,983.91
2018-05-14T03:22:35.783Z,984.00
2018-05-14T03:23:35.789Z,984.00
2018-05-14T03:24:35.774Z,983.97
2018-05-14T03:25:35.773Z,984.00
2018-05-14T03:26:35.763Z,984.02
2018-05-14T03:27:35.756Z,984.01
2018-05-14T03:28:35.755Z,984.02
2018-05-14T03:29:35.751Z,984.05
2018-05-14T03:30:35.746Z,984.04
2018-05-14T03:31:35.738Z,984.08
2018-05-14T03:32:35.738Z,984.07
2018-05-14T03:33:35.733Z,984.09
2018-05-14T03:34:35.725Z,984.12
2018-05-14T03:35:35.724Z,984.11
2018-05-14T03:36:35.715Z,984.09
2018-05-14T03:37:35.713Z,984.10
2018-05-14T03:38:35.708Z,984.14
2018-05-14T03:39:35.702Z,984.11
2018-05-14T03:40:35.701Z,984.10
2018-05-14T03:41:35.692Z,984.08
2018-05-14T03:42:35.688Z,984.08
2018-05-14T03:43:35.689Z,984.13
2018-05-14T03:44:35.678Z,984.10
2018-05-14T03:45:35.673Z,984.15
2018-05-14T03:46:35.670Z,984.14
2018-05-14T03:47:35.692Z,984.15
2018-05-14T03:48:35.661Z,984.12
2018-05-14T03:49:35.655Z,984.14
2018-05-14T03:50:35.650Z,984.20
2018-05-14T03:51:35.649Z,984.17
2018-05-14T03:52:35.641Z,984.13
2018-05-14T03:53:35.635Z,984.12
2018-05-14T03:54:35.673Z,984.12
2018-05-14T03:55:35.636Z,984.15
2018-05-14T03:56:35.633Z,984.22
2018-05-14T03:57:35.615Z,984.16
2018-05-14T03:58:35.612Z,984.22
2018-05-14T03:59:35.608Z,984.16
2018-05-14T04:00:35.602Z,984.15
2018-05-14T04:01:35.599Z,984.13
2018-05-14T04:02:35.596Z,984.13
2018-05-14T04:03:35.587Z,984.16
2018-05-14T04:04:35.585Z,984.19
2018-05-14T04:05:35.579Z,984.16
2018-05-14T04:06:35.574Z,984.15
2018-05-14T04:07:35.569Z,984.18
2018-05-14T04:08:35.564Z,984.20
2018-05-14T04:09:35.560Z,984.22
2018-05-14T04:10:35.555Z,984.22
2018-05-14T04:11:35.551Z,984.26
2018-05-14T04:12:35.545Z,984.25
2018-05-14T04:13:35.540Z,984.28
2018-05-14T04:14:35.534Z,984.27
2018-05-14T04:15:35.529Z,984.25
2018-05-14T04:16:35.527Z,984.26
2018-05-14T04:17:35.520Z,984.24
2018-05-14T04:18:35.514Z,984.28
2018-05-14T04:19:35.509Z,984.27
2018-05-14T04:20:35.507Z,984.28
2018-05-14T04:21:35.496Z,984.29
2018-05-14T04:22:35.493Z,984.30
2018-05-14T04:23:35.487Z,984.31
2018-05-14T04:24:35.481Z,984.33
2018-05-14T04:25:35.473Z,984.35
2018-05-14T04:26:35.469Z,984.39
2018-05-14T04:27:35.465Z,984.39
2018-05-14T04:28:35.459Z,984.41
2018-05-14T04:29:35.454Z,984.37
2018-05-14T04:30:35.446Z,984.34
2018-05-14T04:31:35.440Z,984.34
2018-05-14T04:32:35.436Z,984.33
2018-05-14T04:33:35.434Z,984.34
2018-05-14T04:34:35.424Z,984.37
2018-05-14T04:35:35.417Z,984.39
2018-05-14T04:36:35.411Z,984.42
2018-05-14T04:37:35.406Z,984.41
2018-05-14T04:38:35.400Z,984.47
2018-05-14T04:39:35.396Z,984.52
2018-05-14T04:40:35.391Z,984.55
2018-05-14T04:41:35.379Z,984.58
2018-05-14T04:42:35.377Z,984.58
2018-05-14T04:43:35.369Z,984.59
2018-05-14T04:44:35.363Z,984.61
2018-05-14T04:45:35.354Z,984.64
2018-05-14T04:46:35.350Z,984.65
2018-05-14T04:47:35.348Z,984.61
2018-05-14T04:48:35.338Z,984.60
2018-05-14T04:49:35.335Z,984.61
2018-05-14T04:50:35.324Z,984.56
2018-05-14T04:51:35.322Z,984.56
2018-05-14T04:52:35.315Z,984.60
2018-05-14T04:53:35.308Z,984.54
2018-05-14T04:54:35.299Z,984.57
2018-05-14T04:55:35.293Z,984.57
2018-05-14T04:56:35.288Z,984.56
2018-05-14T04:57:35.281Z,984.52
2018-05-14T04:58:35.276Z,984.51
2018-05-14T04:59:35.269Z,984.53
2018-05-14T05:00:35.265Z,984.50
2018-05-14T05:01:35.256Z,984.47
2018-05-14T05:02:35.251Z,984.48
2018-05-14T05:03:35.245Z,984.50
2018-05-14T05:04:35.240Z,984.50
2018-05-14T05:05:35.230Z,984.52
2018-05-14T05:06:35.226Z,984.52
2018-05-14T05:07:35.218Z,984.54
2018-05-14T05:08:35.214Z,984.57
2018-05-14T05:09:35.208Z,984.53
2018-05-14T05:10:35.203Z,984.53
2018-05-14T05:11:35.208Z,984.51
2018-05-14T05:12:35.187Z,984.52
2018-05-14T05:13:35.180Z,984.54
2018-05-14T05:14:35.177Z,984.52
2018-05-14T05:15:35.168Z,984.51
2018-05-14T05:16:35.163Z,984.46
2018-05-14T05:17:35.156Z,984.39
2018-05-14T05:18:35.149Z,984.43
2018-05-14T05:19:35.144Z,984.43
2018-05-14T05:20:35.135Z,984.48
2018-05-14T05:21:35.133Z,984.56
2018-05-14T05:22:35.124Z,984.56
2018-05-14T05:23:35.119Z,984.58
2018-05-14T05:24:35.112Z,984.59
2018-05-14T05:25:35.106Z,984.58
2018-05-14T05:26:35.099Z,984.59
2018-05-14T05:27:35.091Z,984.61
2018-05-14T05:28:35.086Z,984.60
2018-05-14T05:29:35.079Z,984.60
2018-05-14T05:30:35.073Z,984.60
2018-05-14T05:31:35.069Z,984.62
2018-05-14T05:32:35.062Z,984.68
2018-05-14T05:33:35.054Z,984.66
2018-05-14T05:34:35.119Z,984.70
2018-05-14T05:35:35.042Z,984.72
2018-05-14T05:36:35.036Z,984.73
2018-05-14T05:37:35.029Z,984.76
2018-05-14T05:38:35.023Z,984.75
2018-05-14T05:39:35.020Z,984.81
2018-05-14T05:40:35.010Z,984.83
2018-05-14T05:41:35.003Z,984.82
2018-05-14T05:42:34.999Z,984.82
2018-05-14T05:43:34.992Z,984.84
2018-05-14T05:44:35.005Z,984.84
2018-05-14T05:45:34.978Z,984.85
2018-05-14T05:46:34.972Z,984.84
2018-05-14T05:47:34.968Z,984.90
2018-05-14T05:48:34.962Z,984.90
2018-05-14T05:49:34.952Z,984.91
2018-05-14T05:50:34.946Z,984.90
2018-05-14T05:51:34.939Z,984.90
2018-05-14T05:52:34.936Z,984.90
2018-05-14T05:53:34.927Z,984.94
2018-05-14T05:54:34.921Z,984.95
2018-05-14T05:55:34.914Z,984.94
2018-05-14T05:56:34.910Z,984.94
2018-05-14T05:57:34.901Z,984.96
2018-05-14T05:58:34.901Z,984.96
2018-05-14T05:59:34.889Z,984.97
2018-05-14T06:00:34.893Z,984.95
2018-05-14T06:01:34.875Z,984.92
2018-05-14T06:02:34.869Z,984.93
2018-05-14T06:03:34.862Z,984.91
2018-05-14T06:04:34.865Z,984.90
2018-05-14T06:05:34.849Z,984.94
2018-05-14T06:06:34.844Z,984.91
2018-05-14T06:07:34.837Z,984.94
2018-05-14T06:08:34.832Z,984.88
2018-05-14T06:09:34.864Z,984.90
2018-05-14T06:10:34.823Z,984.86
2018-05-14T06:11:34.812Z,984.90
2018-05-14T06:12:34.807Z,984.96
2018-05-14T06:13:34.798Z,984.96
2018-05-14T06:14:34.791Z,984.99
2018-05-14T06:15:34.878Z,985.02
2018-05-14T06:16:34.780Z,985.06
2018-05-14T06:17:34.771Z,985.06
2018-05-14T06:18:34.768Z,985.08
2018-05-14T06:19:34.760Z,985.12
2018-05-14T06:20:34.755Z,985.15
2018-05-14T06:21:34.746Z,985.14
2018-05-14T06:22:34.741Z,985.15
2018-05-14T06:23:34.736Z,985.10
2018-05-14T06:24:34.731Z,985.16
2018-05-14T06:25:34.721Z,985.17
2018-05-14T06:26:34.715Z,985.16
2018-05-14T06:27:34.709Z,985.16
2018-05-14T06:28:34.792Z,985.15
2018-05-14T06:29:34.696Z,985.17
2018-05-14T06:30:34.689Z,985.19
2018-05-14T06:31:34.684Z,985.20
2018-05-14T06:32:34.678Z,985.18
2018-05-14T06:33:34.680Z,985.20
2018-05-14T06:34:34.664Z,985.21
2018-05-14T06:35:34.753Z,985.25
2018-05-14T06:36:34.660Z,985.29
2018-05-14T06:37:34.644Z,985.27
2018-05-14T06:38:34.644Z,985.28
2018-05-14T06:39:34.634Z,985.26
2018-05-14T06:40:34.625Z,985.29
2018-05-14T06:41:34.619Z,985.32
2018-05-14T06:42:34.610Z,985.30
2018-05-14T06:43:34.609Z,985.33
2018-05-14T06:44:34.600Z,985.35
2018-05-14T06:45:34.593Z,985.33
2018-05-14T06:46:34.587Z,985.32
2018-05-14T06:47:34.585Z,985.34
2018-05-14T06:48:34.575Z,985.33
2018-05-14T06:49:34.567Z,985.37
2018-05-14T06:50:34.561Z,985.34
2018-05-14T06:51:34.555Z,985.34
2018-05-14T06:52:34.547Z,985.36
2018-05-14T06:53:34.544Z,985.29
2018-05-14T06:54:34.535Z,985.33
2018-05-14T06:55:34.529Z,985.30
2018-05-14T06:56:34.523Z,985.32
2018-05-14T06:57:34.517Z,985.32
2018-05-14T06:58:34.512Z,985.33
2018-05-14T06:59:34.505Z,985.33
2018-05-14T07:00:34.498Z,985.27
2018-05-14T07:01:34.489Z,985.22
2018-05-14T07:02:34.490Z,985.24
2018-05-14T07:03:34.478Z,985.20
2018-05-14T07:04:34.472Z,985.21
2018-05-14T07:05:34.466Z,985.19
2018-05-14T07:06:34.459Z,985.19
2018-05-14T07:07:34.451Z,985.17
2018-05-14T07:08:34.448Z,985.22
2018-05-14T07:09:34.437Z,985.15
2018-05-14T07:10:34.433Z,985.20
2018-05-14T07:11:34.430Z,985.19
2018-05-14T07:12:34.419Z,985.17
2018-05-14T07:13:34.412Z,985.20
2018-05-14T07:14:34.407Z,985.23
2018-05-14T07:15:34.399Z,985.24
2018-05-14T07:16:34.440Z,985.26
2018-05-14T07:17:34.388Z,985.27
2018-05-14T07:18:34.383Z,985.25
2018-05-14T07:19:34.374Z,985.31
2018-05-14T07:20:34.441Z,985.29
2018-05-14T07:21:34.362Z,985.32
2018-05-14T07:22:34.361Z,985.32
2018-05-14T07:23:34.348Z,985.33
2018-05-14T07:24:34.342Z,985.34
2018-05-14T07:25:34.339Z,985.38
2018-05-14T07:26:34.329Z,985.38
2018-05-14T07:27:34.322Z,985.40
2018-05-14T07:28:34.316Z,985.40
2018-05-14T07:29:34.325Z,985.41
2018-05-14T07:30:34.303Z,985.44
2018-05-14T07:31:34.297Z,985.48
2018-05-14T07:32:34.291Z,985.49
2018-05-14T07:33:34.284Z,985.49
2018-05-14T07:34:34.278Z,985.53
2018-05-14T07:35:34.272Z,985.54
2018-05-14T07:36:34.268Z,985.51
2018-05-14T07:37:34.258Z,985.51
2018-05-14T07:38:34.254Z,985.53
2018-05-14T07:39:34.246Z,985.49
2018-05-14T07:40:34.248Z,985.46
2018-05-14T07:41:34.232Z,985.46
2018-05-14T07:42:34.233Z,985.52
2018-05-14T07:43:34.221Z,985.48
2018-05-14T07:44:34.216Z,985.47
2018-05-14T07:45:34.207Z,985.37
2018-05-14T07:46:34.203Z,985.33
2018-05-14T07:47:34.197Z,985.29
2018-05-14T07:48:34.188Z,985.32
2018-05-14T07:49:34.183Z,985.36
2018-05-14T07:50:34.179Z,985.32
2018-05-14T07:51:34.168Z,985.38
2018-05-14T07:52:34.163Z,985.39
2018-05-14T07:53:34.156Z,985.41
2018-05-14T07:54:34.248Z,985.43
2018-05-14T07:55:34.145Z,985.46
2018-05-14T07:56:34.142Z,985.50
2018-05-14T07:57:34.130Z,985.47
2018-05-14T07:58:34.122Z,985.47
2018-05-14T07:59:34.117Z,985.46
2018-05-14T08:00:34.112Z,985.49
2018-05-14T08:01:34.104Z,985.51
2018-05-14T08:02:34.100Z,985.44
2018-05-14T08:03:34.091Z,985.50
2018-05-14T08:04:34.085Z,985.52
2018-05-14T08:05:34.081Z,985.53
2018-05-14T08:06:34.071Z,985.54
2018-05-14T08:07:34.070Z,985.56
2018-05-14T08:08:34.059Z,985.59
2018-05-14T08:09:34.052Z,985.53
2018-05-14T08:10:34.047Z,985.53
2018-05-14T08:11:34.041Z,985.55
2018-05-14T08:12:34.034Z,985.57
2018-05-14T08:13:34.027Z,985.56
2018-05-14T08:14:34.020Z,985.64
2018-05-14T08:15:34.014Z,985.62
2018-05-14T08:16:34.007Z,985.60
2018-05-14T08:17:34.003Z,985.61
2018-05-14T08:18:33.997Z,985.61
2018-05-14T08:19:33.989Z,985.64
2018-05-14T08:20:33.982Z,985.61
2018-05-14T08:21:33.975Z,985.62
2018-05-14T08:22:33.968Z,985.63
2018-05-14T08:23:34.055Z,985.62
2018-05-14T08:24:33.958Z,985.59
2018-05-14T08:25:33.948Z,985.61
2018-05-14T08:26:33.942Z,985.66
2018-05-14T08:27:33.937Z,985.66
2018-05-14T08:28:33.931Z,985.67
2018-05-14T08:29:33.925Z,985.70
2018-05-14T08:30:33.918Z,985.67
2018-05-14T08:31:33.911Z,985.68
2018-05-14T08:32:33.907Z,985.67
2018-05-14T08:33:33.903Z,985.74
2018-05-14T08:34:33.890Z,985.79
2018-05-14T08:35:33.890Z,985.82
2018-05-14T08:36:33.881Z,985.84
2018-05-14T08:37:33.871Z,985.85
2018-05-14T08:38:33.865Z,985.85
2018-05-14T08:39:33.880Z,985.90
2018-05-14T08:40:33.853Z,985.90
2018-05-14T08:41:33.845Z,985.95
2018-05-14T08:42:33.839Z,985.97
2018-05-14T08:43:33.833Z,985.98
2018-05-14T08:44:33.834Z,985.98
2018-05-14T08:45:33.818Z,985.99
2018-05-14T08:46:33.816Z,986.02
2018-05-14T08:47:33.808Z,985.98
2018-05-14T08:48:33.802Z,985.99
2018-05-14T08:49:33.793Z,985.94
2018-05-14T08:50:33.791Z,985.90
2018-05-14T08:51:33.782Z,985.94
2018-05-14T08:52:33.773Z,985.92
2018-05-14T08:53:33.769Z,985.94
2018-05-14T08:54:33.845Z,985.89
2018-05-14T08:55:33.754Z,985.86
2018-05-14T08:56:33.749Z,985.86
2018-05-14T08:57:33.744Z,985.85
2018-05-14T08:58:33.734Z,985.86
2018-05-14T08:59:33.729Z,985.89
2018-05-14T09:00:33.721Z,985.87
2018-05-14T09:01:33.716Z,985.93
2018-05-14T09:02:33.708Z,985.85
2018-05-14T09:03:33.705Z,985.84
2018-05-14T09:04:33.697Z,985.79
2018-05-14T09:05:33.692Z,985.79
2018-05-14T09:06:33.683Z,985.83
2018-05-14T09:07:33.676Z,985.82
2018-05-14T09:08:33.672Z,985.84
2018-05-14T09:09:33.662Z,985.83
2018-05-14T09:10:33.658Z,985.82
2018-05-14T09:11:33.650Z,985.80
2018-05-14T09:12:33.644Z,985.79
2018-05-14T09:13:33.638Z,985.79
2018-05-14T09:14:33.633Z,985.82
2018-05-14T09:15:33.625Z,985.88
2018-05-14T09:16:33.619Z,985.80
2018-05-14T09:17:33.611Z,985.77
2018-05-14T09:18:33.606Z,985.80
2018-05-14T09:19:33.649Z,985.80
2018-05-14T09:20:33.592Z,985.83
2018-05-14T09:21:33.585Z,985.87
2018-05-14T09:22:33.581Z,985.88
2018-05-14T09:23:33.575Z,985.83
2018-05-14T09:24:33.568Z,985.83
2018-05-14T09:25:33.628Z,985.84
2018-05-14T09:26:33.554Z,985.78
2018-05-14T09:27:33.549Z,985.78
2018-05-14T09:28:33.543Z,985.81
2018-05-14T09:29:33.533Z,985.82
2018-05-14T09:30:33.527Z,985.84
2018-05-14T09:31:33.524Z,985.84
2018-05-14T09:32:33.515Z,985.79
2018-05-14T09:33:33.509Z,985.82
2018-05-14T09:34:33.505Z,985.86
2018-05-14T09:35:33.496Z,985.88
2018-05-14T09:36:33.490Z,985.87
2018-05-14T09:37:33.477Z,985.88
2018-05-14T09:38:33.478Z,985.89
2018-05-14T09:39:33.470Z,985.86
2018-05-14T09:40:33.464Z,985.89
2018-05-14T09:41:33.457Z,985.89
2018-05-14T09:42:33.451Z,985.87
2018-05-14T09:43:33.448Z,985.96
2018-05-14T09:44:33.462Z,985.89
2018-05-14T09:45:33.432Z,985.94
2018-05-14T09:46:33.426Z,985.89
2018-05-14T09:47:33.423Z,985.92
2018-05-14T09:48:33.492Z,985.92
2018-05-14T09:49:33.411Z,985.91
2018-05-14T09:50:33.421Z,985.88
2018-05-14T09:51:33.395Z,985.88
2018-05-14T09:52:33.387Z,985.89
2018-05-14T09:53:33.381Z,985.89
2018-05-14T09:54:33.374Z,985.91
2018-05-14T09:55:33.369Z,985.87
2018-05-14T09:56:33.361Z,985.88
2018-05-14T09:57:33.364Z,985.90
2018-05-14T09:58:33.349Z,985.89
2018-05-14T09:59:33.343Z,985.85
2018-05-14T10:00:33.339Z,985.83
2018-05-14T10:01:33.330Z,985.78
2018-05-14T10:02:33.326Z,985.82
2018-05-14T10:03:33.380Z,985.79
2018-05-14T10:04:33.314Z,985.78
2018-05-14T10:05:33.306Z,985.77
2018-05-14T10:06:33.307Z,985.80
2018-05-14T10:07:33.297Z,985.87
2018-05-14T10:08:33.294Z,985.81
2018-05-14T10:09:33.283Z,985.83
2018-05-14T10:10:33.278Z,985.87
2018-05-14T10:11:33.271Z,985.82
2018-05-14T10:12:33.268Z,985.84
2018-05-14T10:13:33.260Z,985.84
2018-05-14T10:14:33.253Z,985.84
2018-05-14T10:15:33.251Z,985.82
2018-05-14T10:16:33.240Z,985.86
2018-05-14T10:17:33.232Z,985.81
2018-05-14T10:18:33.229Z,985.80
2018-05-14T10:19:33.222Z,985.82
2018-05-14T10:20:33.216Z,985.84
2018-05-14T10:21:33.211Z,985.81
2018-05-14T10:22:33.209Z,985.84
2018-05-14T10:23:33.198Z,985.82
2018-05-14T10:24:33.273Z,985.83
2018-05-14T10:25:33.186Z,985.84
2018-05-14T10:26:33.181Z,985.80
2018-05-14T10:27:33.174Z,985.86
2018-05-14T10:28:33.166Z,985.84
2018-05-14T10:29:33.163Z,985.85
2018-05-14T10:30:33.158Z,985.82
2018-05-14T10:31:33.153Z,985.81
2018-05-14T10:32:33.144Z,985.76
2018-05-14T10:33:33.138Z,985.82
2018-05-14T10:34:33.135Z,985.77
2018-05-14T10:35:33.128Z,985.77
2018-05-14T10:36:33.122Z,985.73
2018-05-14T10:37:33.113Z,985.75
2018-05-14T10:38:33.112Z,985.70
2018-05-14T10:39:33.105Z,985.72
2018-05-14T10:40:33.100Z,985.72
2018-05-14T10:41:33.090Z,985.73
2018-05-14T10:42:33.084Z,985.69
2018-05-14T10:43:33.081Z,985.65
2018-05-14T10:44:33.075Z,985.61
2018-05-14T10:45:33.070Z,985.64
2018-05-14T10:46:33.065Z,985.63
2018-05-14T10:47:33.057Z,985.68
2018-05-14T10:48:33.053Z,985.68
2018-05-14T10:49:33.043Z,985.64
2018-05-14T10:50:33.039Z,985.64
2018-05-14T10:51:33.034Z,985.65
2018-05-14T10:52:33.029Z,985.61
2018-05-14T10:53:33.019Z,985.66
2018-05-14T10:54:33.018Z,985.65
2018-05-14T10:55:33.020Z,985.63
2018-05-14T10:56:33.007Z,985.70
2018-05-14T10:57:33.000Z,985.66
2018-05-14T10:58:33.081Z,985.67
2018-05-14T10:59:32.985Z,985.65
2018-05-14T11:00:32.980Z,985.66
2018-05-14T11:01:33.001Z,985.64
2018-05-14T11:02:32.970Z,985.60
2018-05-14T11:03:32.965Z,985.60
2018-05-14T11:04:32.959Z,985.61
2018-05-14T11:05:32.956Z,985.62
2018-05-14T11:06:32.948Z,985.61
2018-05-14T11:07:32.943Z,985.57
2018-05-14T11:08:32.937Z,985.60
2018-05-14T11:09:32.930Z,985.62
2018-05-14T11:10:32.967Z,985.62
2018-05-14T11:11:32.919Z,985.68
2018-05-14T11:12:32.916Z,985.67
2018-05-14T11:13:32.907Z,985.68
2018-05-14T11:14:32.903Z,985.67
2018-05-14T11:15:32.899Z,985.65
2018-05-14T11:16:32.892Z,985.66
2018-05-14T11:17:32.887Z,985.67
2018-05-14T11:18:32.881Z,985.70
2018-05-14T11:19:32.875Z,985.69
2018-05-14T11:20:32.870Z,985.69
2018-05-14T11:21:32.865Z,985.70
2018-05-14T11:22:32.858Z,985.70
2018-05-14T11:23:32.852Z,985.69
2018-05-14T11:24:33.155Z,985.71
2018-05-14T11:25:32.841Z,985.74
2018-05-14T11:26:32.837Z,985.72
2018-05-14T11:27:32.843Z,985.74
2018-05-14T11:28:32.832Z,985.73
2018-05-14T11:29:32.822Z,985.73
2018-05-14T11:30:32.814Z,985.71
2018-05-14T11:31:32.807Z,985.68
2018-05-14T11:32:32.816Z,985.70
2018-05-14T11:33:32.808Z,985.72
2018-05-14T11:34:32.795Z,985.72
2018-05-14T11:35:32.789Z,985.67
2018-05-14T11:36:32.783Z,985.68
2018-05-14T11:37:32.777Z,985.65
2018-05-14T11:38:32.914Z,985.66
2018-05-14T11:39:32.767Z,985.69
2018-05-14T11:40:32.760Z,985.65
2018-05-14T11:41:32.755Z,985.63
2018-05-14T11:42:32.754Z,985.60
2018-05-14T11:43:32.745Z,985.66
2018-05-14T11:44:32.743Z,985.63
2018-05-14T11:45:32.734Z,985.64
2018-05-14T11:46:32.735Z,985.68
2018-05-14T11:47:32.758Z,985.65
2018-05-14T11:48:32.721Z,985.64
2018-05-14T11:49:32.713Z,985.64
2018-05-14T11:50:32.711Z,985.69
2018-05-14T11:51:32.713Z,985.67
2018-05-14T11:52:32.698Z,985.63
2018-05-14T11:53:32.690Z,985.59
2018-05-14T11:54:32.689Z,985.64
2018-05-14T11:55:32.724Z,985.61
2018-05-14T11:56:32.685Z,985.59
2018-05-14T11:57:32.670Z,985.60
2018-05-14T11:58:32.664Z,985.60
2018-05-14T11:59:32.658Z,985.57
2018-05-14T12:00:32.652Z,985.58
2018-05-14T12:01:32.651Z,985.58
2018-05-14T12:02:32.644Z,985.59
2018-05-14T12:03:32.637Z,985.59
2018-05-14T12:04:32.647Z,985.54
2018-05-14T12:05:32.625Z,985.54
2018-05-14T12:06:32.622Z,985.56
2018-05-14T12:07:32.613Z,985.57
2018-05-14T12:08:32.612Z,985.57
2018-05-14T12:09:32.602Z,985.59
2018-05-14T12:10:32.603Z,985.65
2018-05-14T12:11:32.597Z,985.61
2018-05-14T12:12:32.589Z,985.57
2018-05-14T12:13:32.583Z,985.62
2018-05-14T12:14:32.580Z,985.65
2018-05-14T12:15:32.572Z,985.63
2018-05-14T12:16:32.567Z,985.59
2018-05-14T12:17:32.566Z,985.57
2018-05-14T12:18:32.556Z,985.57
2018-05-14T12:19:32.549Z,985.63
2018-05-14T12:20:32.549Z,985.56
2018-05-14T12:21:32.538Z,985.57
2018-05-14T12:22:32.535Z,985.62
2018-05-14T12:23:32.889Z,985.56
2018-05-14T12:24:32.522Z,985.52
2018-05-14T12:25:32.533Z,985.51
2018-05-14T12:26:32.514Z,985.54
2018-05-14T12:27:32.507Z,985.51
2018-05-14T12:28:32.505Z,985.50